sensor_id;sensor_type;location;lat;lon;timestamp;P1;durP1;ratioP1;P2;durP2;ratioP2
76589;SDS011;65471;55.908;37.880;2023-03-31T00:02:03;5.43;;;4.85;;
76589;SDS011;65471;55.908;37.880;2023-03-31T00:04:39;6.05;;;5.30;;
76589;SDS011;65471;55.908;37.880;2023-03-31T00:07:12;5.88;;;5.38;;
76589;SDS011;65471;55.908;37.880;2023-03-31T00:09:40;5.60;;;4.82;;
76589;SDS011;65471;55.908;37.880;2023-03-31T00:12:12;5.80;;;5.30;;
76589;SDS011;65471;55.908;37.880;2023-03-31T00:14:39;5.72;;;5.30;;
76589;SDS011;65471;55.908;37.880;2023-03-31T00:17:22;4.93;;;4.47;;
76589;SDS011;65471;55.908;37.880;2023-03-31T00:19:49;6.30;;;5.07;;
76589;SDS011;65471;55.908;37.880;2023-03-31T00:22:16;5.38;;;4.97;;
76589;SDS011;65471;55.908;37.880;2023-03-31T00:24:44;5.90;;;4.65;;
76589;SDS011;65471;55.908;37.880;2023-03-31T00:27:11;4.80;;;4.40;;
76589;SDS011;65471;55.908;37.880;2023-03-31T00:29:38;4.57;;;4.22;;
76589;SDS011;65471;55.908;37.880;2023-03-31T00:32:08;8.38;;;4.22;;
76589;SDS011;65471;55.908;37.880;2023-03-31T00:34:36;7.20;;;4.70;;
76589;SDS011;65471;55.908;37.880;2023-03-31T00:37:03;5.53;;;5.03;;
76589;SDS011;65471;55.908;37.880;2023-03-31T00:39:30;6.60;;;4.53;;
76589;SDS011;65471;55.908;37.880;2023-03-31T00:42:01;5.07;;;4.68;;
76589;SDS011;65471;55.908;37.880;2023-03-31T00:44:29;4.72;;;4.43;;
76589;SDS011;65471;55.908;37.880;2023-03-31T00:49:39;5.00;;;4.70;;
76589;SDS011;65471;55.908;37.880;2023-03-31T00:54:54;5.10;;;4.80;;
76589;SDS011;65471;55.908;37.880;2023-03-31T00:57:24;5.47;;;4.95;;
76589;SDS011;65471;55.908;37.880;2023-03-31T01:00:00;6.90;;;5.55;;
76589;SDS011;65471;55.908;37.880;2023-03-31T01:02:54;5.57;;;5.07;;
76589;SDS011;65471;55.908;37.880;2023-03-31T01:05:25;5.45;;;5.05;;
76589;SDS011;65471;55.908;37.880;2023-03-31T01:07:57;5.15;;;4.68;;
76589;SDS011;65471;55.908;37.880;2023-03-31T01:10:25;5.65;;;4.90;;
76589;SDS011;65471;55.908;37.880;2023-03-31T01:12:53;5.13;;;4.82;;
76589;SDS011;65471;55.908;37.880;2023-03-31T01:15:21;5.43;;;4.93;;
76589;SDS011;65471;55.908;37.880;2023-03-31T01:17:48;6.05;;;5.43;;
76589;SDS011;65471;55.908;37.880;2023-03-31T01:47:30;5.53;;;5.10;;
76589;SDS011;65471;55.908;37.880;2023-03-31T01:58:02;5.82;;;5.32;;
76589;SDS011;65471;55.908;37.880;2023-03-31T02:00:37;5.63;;;5.13;;
76589;SDS011;65471;55.908;37.880;2023-03-31T02:05:41;5.18;;;4.70;;
76589;SDS011;65471;55.908;37.880;2023-03-31T02:08:18;8.05;;;5.03;;
76589;SDS011;65471;55.908;37.880;2023-03-31T02:10:49;5.32;;;4.93;;
76589;SDS011;65471;55.908;37.880;2023-03-31T02:13:18;6.18;;;5.35;;
76589;SDS011;65471;55.908;37.880;2023-03-31T02:15:50;6.35;;;5.13;;
76589;SDS011;65471;55.908;37.880;2023-03-31T02:18:24;5.93;;;5.32;;
76589;SDS011;65471;55.908;37.880;2023-03-31T02:20:53;5.97;;;5.47;;
76589;SDS011;65471;55.908;37.880;2023-03-31T02:23:23;7.45;;;5.35;;
76589;SDS011;65471;55.908;37.880;2023-03-31T02:26:00;5.57;;;5.07;;
76589;SDS011;65471;55.908;37.880;2023-03-31T02:28:30;5.32;;;4.93;;
76589;SDS011;65471;55.908;37.880;2023-03-31T02:31:33;7.32;;;5.15;;
76589;SDS011;65471;55.908;37.880;2023-03-31T02:33:54;5.72;;;5.25;;
76589;SDS011;65471;55.908;37.880;2023-03-31T02:36:21;5.32;;;4.65;;
76589;SDS011;65471;55.908;37.880;2023-03-31T02:39:01;5.68;;;5.20;;
76589;SDS011;65471;55.908;37.880;2023-03-31T02:41:31;5.22;;;4.78;;
76589;SDS011;65471;55.908;37.880;2023-03-31T02:43:58;5.85;;;4.82;;
76589;SDS011;65471;55.908;37.880;2023-03-31T02:46:26;6.25;;;5.00;;
76589;SDS011;65471;55.908;37.880;2023-03-31T02:48:55;6.07;;;5.45;;
76589;SDS011;65471;55.908;37.880;2023-03-31T03:05:50;5.10;;;4.70;;
76589;SDS011;65471;55.908;37.880;2023-03-31T03:11:20;4.70;;;4.30;;
76589;SDS011;65471;55.908;37.880;2023-03-31T03:13:54;5.18;;;4.75;;
76589;SDS011;65471;55.908;37.880;2023-03-31T03:16:32;6.63;;;5.50;;
76589;SDS011;65471;55.908;37.880;2023-03-31T03:19:05;5.80;;;5.40;;
76589;SDS011;65471;55.908;37.880;2023-03-31T03:21:32;6.15;;;5.65;;
76589;SDS011;65471;55.908;37.880;2023-03-31T03:24:00;9.32;;;5.28;;
76589;SDS011;65471;55.908;37.880;2023-03-31T03:26:27;6.85;;;5.75;;
76589;SDS011;65471;55.908;37.880;2023-03-31T03:28:54;6.20;;;5.60;;
76589;SDS011;65471;55.908;37.880;2023-03-31T03:31:22;6.10;;;5.50;;
76589;SDS011;65471;55.908;37.880;2023-03-31T03:33:51;6.90;;;6.22;;
76589;SDS011;65471;55.908;37.880;2023-03-31T03:36:19;10.70;;;5.75;;
76589;SDS011;65471;55.908;37.880;2023-03-31T03:38:46;9.75;;;5.88;;
76589;SDS011;65471;55.908;37.880;2023-03-31T03:41:12;11.77;;;5.38;;
76589;SDS011;65471;55.908;37.880;2023-03-31T03:43:39;5.85;;;5.30;;
76589;SDS011;65471;55.908;37.880;2023-03-31T03:46:06;6.10;;;5.43;;
76589;SDS011;65471;55.908;37.880;2023-03-31T03:48:33;6.78;;;6.22;;
76589;SDS011;65471;55.908;37.880;2023-03-31T03:51:00;6.70;;;6.10;;
76589;SDS011;65471;55.908;37.880;2023-03-31T03:53:27;10.55;;;7.35;;
76589;SDS011;65471;55.908;37.880;2023-03-31T03:55:54;7.07;;;6.38;;
76589;SDS011;65471;55.908;37.880;2023-03-31T03:58:21;8.95;;;7.05;;
76589;SDS011;65471;55.908;37.880;2023-03-31T04:00:48;7.75;;;7.00;;
76589;SDS011;65471;55.908;37.880;2023-03-31T04:03:15;12.40;;;7.10;;
76589;SDS011;65471;55.908;37.880;2023-03-31T04:05:42;8.43;;;6.88;;
76589;SDS011;65471;55.908;37.880;2023-03-31T04:08:08;8.23;;;6.28;;
76589;SDS011;65471;55.908;37.880;2023-03-31T04:10:36;7.35;;;6.53;;
76589;SDS011;65471;55.908;37.880;2023-03-31T04:13:03;9.60;;;6.85;;
76589;SDS011;65471;55.908;37.880;2023-03-31T04:15:30;15.13;;;7.05;;
76589;SDS011;65471;55.908;37.880;2023-03-31T04:17:57;7.95;;;6.63;;
76589;SDS011;65471;55.908;37.880;2023-03-31T04:20:24;7.70;;;6.90;;
76589;SDS011;65471;55.908;37.880;2023-03-31T04:22:56;7.40;;;6.70;;
76589;SDS011;65471;55.908;37.880;2023-03-31T04:25:23;12.32;;;7.90;;
76589;SDS011;65471;55.908;37.880;2023-03-31T04:27:50;6.95;;;6.35;;
76589;SDS011;65471;55.908;37.880;2023-03-31T04:30:21;11.80;;;8.55;;
76589;SDS011;65471;55.908;37.880;2023-03-31T04:35:23;6.70;;;5.95;;
76589;SDS011;65471;55.908;37.880;2023-03-31T04:37:52;7.88;;;6.72;;
76589;SDS011;65471;55.908;37.880;2023-03-31T04:40:24;7.50;;;6.57;;
76589;SDS011;65471;55.908;37.880;2023-03-31T04:42:51;7.65;;;6.85;;
76589;SDS011;65471;55.908;37.880;2023-03-31T04:45:18;9.05;;;6.88;;
76589;SDS011;65471;55.908;37.880;2023-03-31T04:47:48;13.15;;;6.80;;
76589;SDS011;65471;55.908;37.880;2023-03-31T04:50:15;9.25;;;7.00;;
76589;SDS011;65471;55.908;37.880;2023-03-31T04:52:42;8.93;;;6.82;;
76589;SDS011;65471;55.908;37.880;2023-03-31T04:55:09;20.08;;;6.75;;
76589;SDS011;65471;55.908;37.880;2023-03-31T04:57:38;8.10;;;6.85;;
76589;SDS011;65471;55.908;37.880;2023-03-31T05:00:05;8.90;;;7.97;;
76589;SDS011;65471;55.908;37.880;2023-03-31T05:02:33;11.25;;;7.75;;
76589;SDS011;65471;55.908;37.880;2023-03-31T05:05:00;11.45;;;7.03;;
76589;SDS011;65471;55.908;37.880;2023-03-31T05:07:28;14.27;;;8.35;;
76589;SDS011;65471;55.908;37.880;2023-03-31T05:09:55;10.60;;;7.70;;
76589;SDS011;65471;55.908;37.880;2023-03-31T05:12:22;16.40;;;8.02;;
76589;SDS011;65471;55.908;37.880;2023-03-31T05:14:48;16.30;;;7.95;;
76589;SDS011;65471;55.908;37.880;2023-03-31T05:17:15;8.70;;;7.38;;
76589;SDS011;65471;55.908;37.880;2023-03-31T05:19:43;11.07;;;7.97;;
76589;SDS011;65471;55.908;37.880;2023-03-31T05:22:10;9.85;;;8.32;;
76589;SDS011;65471;55.908;37.880;2023-03-31T05:24:36;10.35;;;7.90;;
76589;SDS011;65471;55.908;37.880;2023-03-31T05:27:03;14.43;;;8.82;;
76589;SDS011;65471;55.908;37.880;2023-03-31T05:29:30;12.07;;;8.90;;
76589;SDS011;65471;55.908;37.880;2023-03-31T05:31:57;12.25;;;9.07;;
76589;SDS011;65471;55.908;37.880;2023-03-31T05:34:24;13.65;;;8.13;;
76589;SDS011;65471;55.908;37.880;2023-03-31T05:36:51;12.77;;;9.80;;
76589;SDS011;65471;55.908;37.880;2023-03-31T05:39:19;13.20;;;9.50;;
76589;SDS011;65471;55.908;37.880;2023-03-31T05:41:47;15.68;;;9.75;;
76589;SDS011;65471;55.908;37.880;2023-03-31T05:44:14;15.07;;;10.57;;
76589;SDS011;65471;55.908;37.880;2023-03-31T05:46:41;12.95;;;10.05;;
76589;SDS011;65471;55.908;37.880;2023-03-31T05:49:08;16.58;;;10.98;;
76589;SDS011;65471;55.908;37.880;2023-03-31T05:51:36;20.98;;;10.60;;
76589;SDS011;65471;55.908;37.880;2023-03-31T05:54:03;11.85;;;8.82;;
76589;SDS011;65471;55.908;37.880;2023-03-31T05:56:31;11.15;;;9.02;;
76589;SDS011;65471;55.908;37.880;2023-03-31T05:58:59;12.82;;;8.65;;
76589;SDS011;65471;55.908;37.880;2023-03-31T06:01:26;12.48;;;9.02;;
76589;SDS011;65471;55.908;37.880;2023-03-31T06:03:55;13.15;;;9.57;;
76589;SDS011;65471;55.908;37.880;2023-03-31T06:06:22;12.95;;;9.15;;
76589;SDS011;65471;55.908;37.880;2023-03-31T06:08:50;15.43;;;9.45;;
76589;SDS011;65471;55.908;37.880;2023-03-31T06:11:18;12.60;;;8.95;;
76589;SDS011;65471;55.908;37.880;2023-03-31T06:13:46;9.27;;;8.38;;
76589;SDS011;65471;55.908;37.880;2023-03-31T06:16:14;15.18;;;9.23;;
76589;SDS011;65471;55.908;37.880;2023-03-31T06:18:43;13.27;;;8.95;;
76589;SDS011;65471;55.908;37.880;2023-03-31T06:21:11;14.90;;;9.55;;
76589;SDS011;65471;55.908;37.880;2023-03-31T06:23:39;21.02;;;10.40;;
76589;SDS011;65471;55.908;37.880;2023-03-31T06:26:07;18.85;;;10.52;;
76589;SDS011;65471;55.908;37.880;2023-03-31T06:28:34;18.90;;;11.20;;
76589;SDS011;65471;55.908;37.880;2023-03-31T06:31:08;14.80;;;9.98;;
76589;SDS011;65471;55.908;37.880;2023-03-31T06:33:38;15.88;;;10.88;;
76589;SDS011;65471;55.908;37.880;2023-03-31T06:38:34;13.27;;;10.13;;
76589;SDS011;65471;55.908;37.880;2023-03-31T06:41:07;17.17;;;10.38;;
76589;SDS011;65471;55.908;37.880;2023-03-31T06:43:35;13.68;;;9.30;;
76589;SDS011;65471;55.908;37.880;2023-03-31T06:46:02;13.00;;;9.57;;
76589;SDS011;65471;55.908;37.880;2023-03-31T06:48:30;17.08;;;9.68;;
76589;SDS011;65471;55.908;37.880;2023-03-31T06:51:00;12.73;;;9.13;;
76589;SDS011;65471;55.908;37.880;2023-03-31T06:53:28;15.65;;;9.57;;
76589;SDS011;65471;55.908;37.880;2023-03-31T06:55:55;19.88;;;10.07;;
76589;SDS011;65471;55.908;37.880;2023-03-31T06:58:22;15.75;;;9.27;;
76589;SDS011;65471;55.908;37.880;2023-03-31T07:00:49;10.35;;;8.48;;
76589;SDS011;65471;55.908;37.880;2023-03-31T07:03:16;18.30;;;8.73;;
76589;SDS011;65471;55.908;37.880;2023-03-31T07:05:52;10.23;;;8.27;;
76589;SDS011;65471;55.908;37.880;2023-03-31T07:08:20;13.90;;;8.80;;
76589;SDS011;65471;55.908;37.880;2023-03-31T07:10:48;12.33;;;7.60;;
76589;SDS011;65471;55.908;37.880;2023-03-31T07:13:18;13.00;;;8.20;;
76589;SDS011;65471;55.908;37.880;2023-03-31T07:15:46;12.90;;;8.50;;
76589;SDS011;65471;55.908;37.880;2023-03-31T07:18:14;12.93;;;8.55;;
76589;SDS011;65471;55.908;37.880;2023-03-31T07:20:42;14.73;;;8.30;;
76589;SDS011;65471;55.908;37.880;2023-03-31T07:23:09;16.83;;;9.10;;
76589;SDS011;65471;55.908;37.880;2023-03-31T07:25:36;12.55;;;9.32;;
76589;SDS011;65471;55.908;37.880;2023-03-31T07:28:03;13.98;;;8.18;;
76589;SDS011;65471;55.908;37.880;2023-03-31T07:32:59;17.73;;;9.55;;
76589;SDS011;65471;55.908;37.880;2023-03-31T07:35:27;18.70;;;10.27;;
76589;SDS011;65471;55.908;37.880;2023-03-31T07:40:24;13.75;;;9.93;;
76589;SDS011;65471;55.908;37.880;2023-03-31T07:42:53;16.05;;;9.90;;
76589;SDS011;65471;55.908;37.880;2023-03-31T07:45:21;19.65;;;10.32;;
76589;SDS011;65471;55.908;37.880;2023-03-31T07:47:50;18.52;;;10.18;;
76589;SDS011;65471;55.908;37.880;2023-03-31T07:50:17;19.13;;;9.05;;
76589;SDS011;65471;55.908;37.880;2023-03-31T07:52:46;13.63;;;9.88;;
76589;SDS011;65471;55.908;37.880;2023-03-31T07:55:13;9.70;;;8.40;;
76589;SDS011;65471;55.908;37.880;2023-03-31T07:57:40;9.98;;;8.48;;
76589;SDS011;65471;55.908;37.880;2023-03-31T08:00:09;19.95;;;8.23;;
76589;SDS011;65471;55.908;37.880;2023-03-31T08:02:38;8.48;;;7.63;;
76589;SDS011;65471;55.908;37.880;2023-03-31T08:05:08;9.52;;;8.02;;
76589;SDS011;65471;55.908;37.880;2023-03-31T08:07:38;22.13;;;9.43;;
76589;SDS011;65471;55.908;37.880;2023-03-31T08:10:08;14.68;;;9.70;;
76589;SDS011;65471;55.908;37.880;2023-03-31T08:12:38;12.68;;;8.70;;
76589;SDS011;65471;55.908;37.880;2023-03-31T08:15:05;21.00;;;8.80;;
76589;SDS011;65471;55.908;37.880;2023-03-31T08:17:32;10.40;;;8.27;;
76589;SDS011;65471;55.908;37.880;2023-03-31T08:19:59;15.40;;;8.27;;
76589;SDS011;65471;55.908;37.880;2023-03-31T08:22:32;11.88;;;8.25;;
76589;SDS011;65471;55.908;37.880;2023-03-31T08:24:59;12.82;;;9.27;;
76589;SDS011;65471;55.908;37.880;2023-03-31T08:27:26;13.68;;;8.98;;
76589;SDS011;65471;55.908;37.880;2023-03-31T08:29:53;15.05;;;9.68;;
76589;SDS011;65471;55.908;37.880;2023-03-31T08:32:23;20.08;;;9.07;;
76589;SDS011;65471;55.908;37.880;2023-03-31T08:34:50;14.20;;;8.70;;
76589;SDS011;65471;55.908;37.880;2023-03-31T08:37:17;16.15;;;7.68;;
76589;SDS011;65471;55.908;37.880;2023-03-31T08:39:44;17.55;;;8.43;;
76589;SDS011;65471;55.908;37.880;2023-03-31T08:47:33;15.25;;;9.35;;
76589;SDS011;65471;55.908;37.880;2023-03-31T08:50:04;22.42;;;9.20;;
76589;SDS011;65471;55.908;37.880;2023-03-31T08:52:41;16.25;;;9.07;;
76589;SDS011;65471;55.908;37.880;2023-03-31T08:55:19;15.18;;;8.88;;
76589;SDS011;65471;55.908;37.880;2023-03-31T09:00:39;15.45;;;8.63;;
76589;SDS011;65471;55.908;37.880;2023-03-31T09:03:26;20.10;;;9.45;;
76589;SDS011;65471;55.908;37.880;2023-03-31T09:06:07;11.55;;;8.50;;
76589;SDS011;65471;55.908;37.880;2023-03-31T09:08:41;11.77;;;8.40;;
76589;SDS011;65471;55.908;37.880;2023-03-31T09:16:08;16.38;;;9.05;;
76589;SDS011;65471;55.908;37.880;2023-03-31T09:18:42;19.50;;;8.93;;
76589;SDS011;65471;55.908;37.880;2023-03-31T09:29:40;12.95;;;8.07;;
76589;SDS011;65471;55.908;37.880;2023-03-31T09:32:17;12.90;;;8.15;;
76589;SDS011;65471;55.908;37.880;2023-03-31T09:34:51;22.30;;;8.35;;
76589;SDS011;65471;55.908;37.880;2023-03-31T09:37:24;14.98;;;7.90;;
76589;SDS011;65471;55.908;37.880;2023-03-31T09:39:57;11.93;;;7.72;;
76589;SDS011;65471;55.908;37.880;2023-03-31T09:42:26;18.90;;;8.45;;
76589;SDS011;65471;55.908;37.880;2023-03-31T09:44:52;14.27;;;8.40;;
76589;SDS011;65471;55.908;37.880;2023-03-31T09:47:25;12.27;;;8.05;;
76589;SDS011;65471;55.908;37.880;2023-03-31T09:50:05;18.42;;;9.02;;
76589;SDS011;65471;55.908;37.880;2023-03-31T09:52:36;30.13;;;9.82;;
76589;SDS011;65471;55.908;37.880;2023-03-31T09:55:17;16.45;;;9.30;;
76589;SDS011;65471;55.908;37.880;2023-03-31T09:58:07;23.85;;;8.70;;
76589;SDS011;65471;55.908;37.880;2023-03-31T10:00:42;12.65;;;8.85;;
76589;SDS011;65471;55.908;37.880;2023-03-31T10:03:22;12.43;;;8.43;;
76589;SDS011;65471;55.908;37.880;2023-03-31T10:05:51;13.98;;;8.32;;
76589;SDS011;65471;55.908;37.880;2023-03-31T10:08:24;15.30;;;8.50;;
76589;SDS011;65471;55.908;37.880;2023-03-31T10:10:56;20.75;;;8.65;;
76589;SDS011;65471;55.908;37.880;2023-03-31T10:16:09;13.75;;;8.30;;
76589;SDS011;65471;55.908;37.880;2023-03-31T10:18:40;13.75;;;8.30;;
76589;SDS011;65471;55.908;37.880;2023-03-31T10:21:19;11.63;;;8.32;;
76589;SDS011;65471;55.908;37.880;2023-03-31T10:23:49;11.05;;;8.52;;
76589;SDS011;65471;55.908;37.880;2023-03-31T10:26:25;11.95;;;8.52;;
76589;SDS011;65471;55.908;37.880;2023-03-31T10:28:54;12.20;;;7.75;;
76589;SDS011;65471;55.908;37.880;2023-03-31T10:31:23;26.92;;;9.70;;
76589;SDS011;65471;55.908;37.880;2023-03-31T10:33:52;20.38;;;8.35;;
76589;SDS011;65471;55.908;37.880;2023-03-31T10:36:21;10.20;;;8.40;;
76589;SDS011;65471;55.908;37.880;2023-03-31T10:38:52;15.38;;;7.63;;
76589;SDS011;65471;55.908;37.880;2023-03-31T10:41:21;11.73;;;7.35;;
76589;SDS011;65471;55.908;37.880;2023-03-31T10:43:52;11.85;;;7.82;;
76589;SDS011;65471;55.908;37.880;2023-03-31T10:46:38;14.48;;;8.77;;
76589;SDS011;65471;55.908;37.880;2023-03-31T10:51:48;12.60;;;8.70;;
76589;SDS011;65471;55.908;37.880;2023-03-31T10:54:20;15.00;;;8.05;;
76589;SDS011;65471;55.908;37.880;2023-03-31T10:56:48;15.63;;;8.48;;
76589;SDS011;65471;55.908;37.880;2023-03-31T11:13:09;15.27;;;9.13;;
76589;SDS011;65471;55.908;37.880;2023-03-31T11:23:49;16.40;;;9.90;;
76589;SDS011;65471;55.908;37.880;2023-03-31T11:32:07;28.00;;;10.80;;
76589;SDS011;65471;55.908;37.880;2023-03-31T11:34:56;32.20;;;10.95;;
76589;SDS011;65471;55.908;37.880;2023-03-31T11:40:29;24.20;;;12.65;;
76589;SDS011;65471;55.908;37.880;2023-03-31T11:43:06;20.60;;;12.18;;
76589;SDS011;65471;55.908;37.880;2023-03-31T11:45:37;20.23;;;11.82;;
76589;SDS011;65471;55.908;37.880;2023-03-31T11:48:15;26.20;;;12.70;;
76589;SDS011;65471;55.908;37.880;2023-03-31T11:50:47;26.55;;;11.65;;
76589;SDS011;65471;55.908;37.880;2023-03-31T11:53:16;20.88;;;11.85;;
76589;SDS011;65471;55.908;37.880;2023-03-31T11:55:49;24.23;;;12.35;;
76589;SDS011;65471;55.908;37.880;2023-03-31T11:58:21;22.50;;;12.10;;
76589;SDS011;65471;55.908;37.880;2023-03-31T12:00:59;25.70;;;12.65;;
76589;SDS011;65471;55.908;37.880;2023-03-31T12:06:39;25.10;;;11.63;;
76589;SDS011;65471;55.908;37.880;2023-03-31T12:14:35;33.90;;;12.95;;
76589;SDS011;65471;55.908;37.880;2023-03-31T12:17:11;44.13;;;13.73;;
76589;SDS011;65471;55.908;37.880;2023-03-31T12:22:41;28.35;;;12.25;;
76589;SDS011;65471;55.908;37.880;2023-03-31T12:25:15;30.42;;;12.60;;
76589;SDS011;65471;55.908;37.880;2023-03-31T12:27:48;33.90;;;12.57;;
76589;SDS011;65471;55.908;37.880;2023-03-31T12:30:33;24.05;;;11.90;;
76589;SDS011;65471;55.908;37.880;2023-03-31T12:35:56;35.60;;;11.77;;
76589;SDS011;65471;55.908;37.880;2023-03-31T12:41:30;28.30;;;11.95;;
76589;SDS011;65471;55.908;37.880;2023-03-31T12:44:11;28.92;;;12.45;;
76589;SDS011;65471;55.908;37.880;2023-03-31T12:49:40;25.02;;;12.23;;
76589;SDS011;65471;55.908;37.880;2023-03-31T12:52:35;40.28;;;13.45;;
76589;SDS011;65471;55.908;37.880;2023-03-31T13:01:09;28.15;;;11.95;;
76589;SDS011;65471;55.908;37.880;2023-03-31T13:09:00;31.80;;;13.05;;
76589;SDS011;65471;55.908;37.880;2023-03-31T13:16:42;42.88;;;15.70;;
76589;SDS011;65471;55.908;37.880;2023-03-31T13:19:11;41.28;;;16.15;;
76589;SDS011;65471;55.908;37.880;2023-03-31T13:21:51;41.20;;;14.98;;
76589;SDS011;65471;55.908;37.880;2023-03-31T13:26:47;39.30;;;15.07;;
76589;SDS011;65471;55.908;37.880;2023-03-31T13:37:51;67.47;;;20.73;;
76589;SDS011;65471;55.908;37.880;2023-03-31T13:51:12;92.20;;;28.23;;
76589;SDS011;65471;55.908;37.880;2023-03-31T13:56:54;71.00;;;21.88;;
76589;SDS011;65471;55.908;37.880;2023-03-31T14:05:37;63.05;;;22.00;;
76589;SDS011;65471;55.908;37.880;2023-03-31T14:11:20;54.22;;;19.77;;
76589;SDS011;65471;55.908;37.880;2023-03-31T14:13:58;60.28;;;22.40;;
76589;SDS011;65471;55.908;37.880;2023-03-31T14:16:27;61.47;;;22.52;;
76589;SDS011;65471;55.908;37.880;2023-03-31T14:24:43;55.20;;;21.10;;
76589;SDS011;65471;55.908;37.880;2023-03-31T14:39:25;44.30;;;18.67;;
76589;SDS011;65471;55.908;37.880;2023-03-31T14:41:56;57.05;;;19.38;;
76589;SDS011;65471;55.908;37.880;2023-03-31T14:44:27;46.13;;;18.38;;
76589;SDS011;65471;55.908;37.880;2023-03-31T14:46:55;52.47;;;18.83;;
76589;SDS011;65471;55.908;37.880;2023-03-31T14:49:28;53.60;;;18.38;;
76589;SDS011;65471;55.908;37.880;2023-03-31T14:52:00;51.42;;;18.70;;
76589;SDS011;65471;55.908;37.880;2023-03-31T14:54:35;50.53;;;17.70;;
76589;SDS011;65471;55.908;37.880;2023-03-31T14:57:03;46.67;;;17.65;;
76589;SDS011;65471;55.908;37.880;2023-03-31T14:59:32;45.28;;;18.00;;
76589;SDS011;65471;55.908;37.880;2023-03-31T15:02:02;47.80;;;19.42;;
76589;SDS011;65471;55.908;37.880;2023-03-31T15:04:33;35.38;;;17.08;;
76589;SDS011;65471;55.908;37.880;2023-03-31T15:07:11;57.15;;;21.75;;
76589;SDS011;65471;55.908;37.880;2023-03-31T15:09:38;53.97;;;21.08;;
76589;SDS011;65471;55.908;37.880;2023-03-31T15:12:07;54.90;;;21.00;;
76589;SDS011;65471;55.908;37.880;2023-03-31T15:14:41;53.10;;;21.23;;
76589;SDS011;65471;55.908;37.880;2023-03-31T15:17:35;46.92;;;19.85;;
76589;SDS011;65471;55.908;37.880;2023-03-31T15:22:49;46.03;;;16.17;;
76589;SDS011;65471;55.908;37.880;2023-03-31T15:25:16;42.67;;;16.92;;
76589;SDS011;65471;55.908;37.880;2023-03-31T15:27:45;36.05;;;15.77;;
76589;SDS011;65471;55.908;37.880;2023-03-31T15:30:25;39.38;;;17.27;;
76589;SDS011;65471;55.908;37.880;2023-03-31T15:35:36;32.10;;;14.30;;
76589;SDS011;65471;55.908;37.880;2023-03-31T15:38:04;29.52;;;14.65;;
76589;SDS011;65471;55.908;37.880;2023-03-31T15:40:35;33.97;;;15.05;;
76589;SDS011;65471;55.908;37.880;2023-03-31T15:46:10;42.88;;;16.17;;
76589;SDS011;65471;55.908;37.880;2023-03-31T15:48:48;39.75;;;16.15;;
76589;SDS011;65471;55.908;37.880;2023-03-31T15:51:20;34.97;;;16.52;;
76589;SDS011;65471;55.908;37.880;2023-03-31T15:53:50;59.25;;;20.13;;
76589;SDS011;65471;55.908;37.880;2023-03-31T15:59:21;45.70;;;17.90;;
76589;SDS011;65471;55.908;37.880;2023-03-31T16:01:56;40.03;;;15.63;;
76589;SDS011;65471;55.908;37.880;2023-03-31T16:04:31;35.65;;;15.57;;
76589;SDS011;65471;55.908;37.880;2023-03-31T16:07:00;35.72;;;15.82;;
76589;SDS011;65471;55.908;37.880;2023-03-31T16:09:47;55.08;;;20.15;;
76589;SDS011;65471;55.908;37.880;2023-03-31T16:14:58;103.35;;;29.20;;
76589;SDS011;65471;55.908;37.880;2023-03-31T16:17:37;108.45;;;32.90;;
76589;SDS011;65471;55.908;37.880;2023-03-31T16:20:25;162.93;;;44.03;;
76589;SDS011;65471;55.908;37.880;2023-03-31T16:23:12;134.93;;;36.90;;
76589;SDS011;65471;55.908;37.880;2023-03-31T16:25:42;108.18;;;31.58;;
76589;SDS011;65471;55.908;37.880;2023-03-31T16:28:13;74.45;;;23.58;;
76589;SDS011;65471;55.908;37.880;2023-03-31T16:30:42;56.58;;;21.00;;
76589;SDS011;65471;55.908;37.880;2023-03-31T16:33:11;42.60;;;18.75;;
76589;SDS011;65471;55.908;37.880;2023-03-31T16:35:50;39.80;;;17.88;;
76589;SDS011;65471;55.908;37.880;2023-03-31T16:38:19;42.97;;;17.40;;
76589;SDS011;65471;55.908;37.880;2023-03-31T16:40:53;47.15;;;17.95;;
76589;SDS011;65471;55.908;37.880;2023-03-31T16:43:23;40.97;;;17.85;;
76589;SDS011;65471;55.908;37.880;2023-03-31T16:45:55;41.30;;;17.63;;
76589;SDS011;65471;55.908;37.880;2023-03-31T16:48:23;38.50;;;16.90;;
76589;SDS011;65471;55.908;37.880;2023-03-31T16:50:54;37.92;;;17.58;;
76589;SDS011;65471;55.908;37.880;2023-03-31T16:53:23;40.47;;;17.42;;
76589;SDS011;65471;55.908;37.880;2023-03-31T16:55:53;48.53;;;19.75;;
76589;SDS011;65471;55.908;37.880;2023-03-31T16:58:20;47.90;;;19.13;;
76589;SDS011;65471;55.908;37.880;2023-03-31T17:00:49;51.10;;;20.65;;
76589;SDS011;65471;55.908;37.880;2023-03-31T17:03:17;52.50;;;20.73;;
76589;SDS011;65471;55.908;37.880;2023-03-31T17:05:45;51.28;;;20.33;;
76589;SDS011;65471;55.908;37.880;2023-03-31T17:08:16;50.70;;;20.50;;
76589;SDS011;65471;55.908;37.880;2023-03-31T17:10:49;49.67;;;20.63;;
76589;SDS011;65471;55.908;37.880;2023-03-31T17:13:20;57.47;;;22.70;;
76589;SDS011;65471;55.908;37.880;2023-03-31T17:15:47;65.43;;;22.60;;
76589;SDS011;65471;55.908;37.880;2023-03-31T17:18:17;64.82;;;23.30;;
76589;SDS011;65471;55.908;37.880;2023-03-31T17:20:44;56.88;;;23.40;;
76589;SDS011;65471;55.908;37.880;2023-03-31T17:23:11;71.18;;;24.88;;
76589;SDS011;65471;55.908;37.880;2023-03-31T17:25:38;74.75;;;25.65;;
76589;SDS011;65471;55.908;37.880;2023-03-31T17:28:05;60.80;;;24.38;;
76589;SDS011;65471;55.908;37.880;2023-03-31T17:30:34;61.47;;;22.95;;
76589;SDS011;65471;55.908;37.880;2023-03-31T17:33:01;71.18;;;24.35;;
76589;SDS011;65471;55.908;37.880;2023-03-31T17:35:29;64.33;;;22.17;;
76589;SDS011;65471;55.908;37.880;2023-03-31T17:37:56;59.08;;;22.33;;
76589;SDS011;65471;55.908;37.880;2023-03-31T17:40:24;57.72;;;21.42;;
76589;SDS011;65471;55.908;37.880;2023-03-31T17:42:53;48.95;;;21.20;;
76589;SDS011;65471;55.908;37.880;2023-03-31T17:45:20;53.00;;;21.80;;
76589;SDS011;65471;55.908;37.880;2023-03-31T17:47:47;58.67;;;21.42;;
76589;SDS011;65471;55.908;37.880;2023-03-31T17:50:13;56.65;;;21.02;;
76589;SDS011;65471;55.908;37.880;2023-03-31T17:52:40;57.90;;;21.20;;
76589;SDS011;65471;55.908;37.880;2023-03-31T17:55:07;60.83;;;22.02;;
76589;SDS011;65471;55.908;37.880;2023-03-31T17:57:34;59.22;;;22.63;;
76589;SDS011;65471;55.908;37.880;2023-03-31T18:00:03;64.30;;;22.27;;
76589;SDS011;65471;55.908;37.880;2023-03-31T18:02:31;56.42;;;22.58;;
76589;SDS011;65471;55.908;37.880;2023-03-31T18:04:58;56.53;;;21.65;;
76589;SDS011;65471;55.908;37.880;2023-03-31T18:07:26;58.00;;;21.85;;
76589;SDS011;65471;55.908;37.880;2023-03-31T18:09:53;54.78;;;20.63;;
76589;SDS011;65471;55.908;37.880;2023-03-31T18:12:20;67.72;;;22.95;;
76589;SDS011;65471;55.908;37.880;2023-03-31T18:14:47;54.97;;;21.42;;
76589;SDS011;65471;55.908;37.880;2023-03-31T18:17:14;46.78;;;20.60;;
76589;SDS011;65471;55.908;37.880;2023-03-31T18:19:42;51.00;;;21.70;;
76589;SDS011;65471;55.908;37.880;2023-03-31T18:22:09;52.58;;;21.75;;
76589;SDS011;65471;55.908;37.880;2023-03-31T18:24:36;53.00;;;21.00;;
76589;SDS011;65471;55.908;37.880;2023-03-31T18:27:04;58.63;;;21.33;;
76589;SDS011;65471;55.908;37.880;2023-03-31T18:29:31;51.20;;;19.80;;